sensor_id;sensor_type;location;lat;lon;timestamp;noise_LAeq;noise_LA_min;noise_LA_max;noise_LA01;noise_LA95
4048;Laerm;2038;51.728;6.674;2022-07-21T00:01:56;40.40;35.36;54.41;;
4048;Laerm;2038;51.728;6.674;2022-07-21T00:04:22;40.12;36.91;47.96;;
4048;Laerm;2038;51.728;6.674;2022-07-21T00:06:49;39.43;35.66;46.82;;
4048;Laerm;2038;51.728;6.674;2022-07-21T00:09:15;39.39;35.04;45.17;;
4048;Laerm;2038;51.728;6.674;2022-07-21T00:11:42;39.51;33.90;48.99;;
4048;Laerm;2038;51.728;6.674;2022-07-21T00:14:10;39.24;33.90;44.90;;
4048;Laerm;2038;51.728;6.674;2022-07-21T00:16:38;39.42;34.69;44.39;;
4048;Laerm;2038;51.728;6.674;2022-07-21T00:19:05;40.20;34.69;48.49;;
4048;Laerm;2038;51.728;6.674;2022-07-21T00:21:32;40.19;36.69;46.38;;
4048;Laerm;2038;51.728;6.674;2022-07-21T00:23:58;40.88;36.45;67.25;;
4048;Laerm;2038;51.728;6.674;2022-07-21T00:26:24;40.34;34.69;49.96;;
4048;Laerm;2038;51.728;6.674;2022-07-21T00:28:50;46.95;35.04;63.78;;
4048;Laerm;2038;51.728;6.674;2022-07-21T00:31:17;41.29;35.36;49.82;;
4048;Laerm;2038;51.728;6.674;2022-07-21T00:33:43;39.61;34.69;45.14;;
4048;Laerm;2038;51.728;6.674;2022-07-21T00:36:09;48.28;34.69;66.57;;
4048;Laerm;2038;51.728;6.674;2022-07-21T00:38:36;39.56;35.94;48.74;;
4048;Laerm;2038;51.728;6.674;2022-07-21T00:41:02;47.98;34.69;66.45;;
4048;Laerm;2038;51.728;6.674;2022-07-21T00:43:28;48.77;35.04;69.37;;
4048;Laerm;2038;51.728;6.674;2022-07-21T00:45:55;38.82;34.34;46.91;;
4048;Laerm;2038;51.728;6.674;2022-07-21T00:48:22;38.82;33.90;45.11;;
4048;Laerm;2038;51.728;6.674;2022-07-21T00:50:48;39.02;34.69;53.07;;
4048;Laerm;2038;51.728;6.674;2022-07-21T00:53:15;40.44;36.69;54.05;;
4048;Laerm;2038;51.728;6.674;2022-07-21T00:55:45;41.61;38.52;56.79;;
4048;Laerm;2038;51.728;6.674;2022-07-21T00:58:13;42.32;40.23;55.34;;
4048;Laerm;2038;51.728;6.674;2022-07-21T01:00:40;41.92;38.95;55.62;;
4048;Laerm;2038;51.728;6.674;2022-07-21T01:03:07;41.73;39.21;50.47;;
4048;Laerm;2038;51.728;6.674;2022-07-21T01:05:34;42.65;39.70;60.50;;
4048;Laerm;2038;51.728;6.674;2022-07-21T01:08:00;42.91;39.81;59.74;;
4048;Laerm;2038;51.728;6.674;2022-07-21T01:10:30;48.33;41.53;66.07;;
4048;Laerm;2038;51.728;6.674;2022-07-21T01:12:58;42.42;37.70;55.65;;
4048;Laerm;2038;51.728;6.674;2022-07-21T01:15:24;40.54;36.91;55.49;;
4048;Laerm;2038;51.728;6.674;2022-07-21T01:17:51;45.22;35.66;61.66;;
4048;Laerm;2038;51.728;6.674;2022-07-21T01:20:22;43.93;35.04;59.62;;
4048;Laerm;2038;51.728;6.674;2022-07-21T01:22:54;40.57;37.32;46.89;;
4048;Laerm;2038;51.728;6.674;2022-07-21T01:25:22;46.80;35.66;65.65;;
4048;Laerm;2038;51.728;6.674;2022-07-21T01:27:49;40.57;35.94;48.94;;
4048;Laerm;2038;51.728;6.674;2022-07-21T01:30:16;40.13;35.94;47.46;;
4048;Laerm;2038;51.728;6.674;2022-07-21T01:32:43;39.77;34.31;45.80;;
4048;Laerm;2038;51.728;6.674;2022-07-21T01:35:12;40.24;35.66;58.43;;
4048;Laerm;2038;51.728;6.674;2022-07-21T01:37:44;46.44;37.88;63.13;;
4048;Laerm;2038;51.728;6.674;2022-07-21T01:40:13;40.27;36.20;53.74;;
4048;Laerm;2038;51.728;6.674;2022-07-21T01:42:59;47.40;35.04;64.19;;
4048;Laerm;2038;51.728;6.674;2022-07-21T01:45:25;46.05;34.69;64.75;;
4048;Laerm;2038;51.728;6.674;2022-07-21T01:47:52;46.21;37.88;61.21;;
4048;Laerm;2038;51.728;6.674;2022-07-21T01:50:18;45.77;42.53;62.39;;
4048;Laerm;2038;51.728;6.674;2022-07-21T01:52:47;45.29;42.03;60.14;;
4048;Laerm;2038;51.728;6.674;2022-07-21T01:55:13;52.57;43.72;72.64;;
4048;Laerm;2038;51.728;6.674;2022-07-21T01:57:40;53.15;45.66;71.92;;
4048;Laerm;2038;51.728;6.674;2022-07-21T02:00:07;47.20;43.72;73.30;;
4048;Laerm;2038;51.728;6.674;2022-07-21T02:02:33;43.85;40.62;56.33;;
4048;Laerm;2038;51.728;6.674;2022-07-21T02:05:00;47.73;39.21;65.49;;
4048;Laerm;2038;51.728;6.674;2022-07-21T02:07:26;44.87;40.62;62.95;;
4048;Laerm;2038;51.728;6.674;2022-07-21T02:09:52;54.37;44.35;68.76;;
4048;Laerm;2038;51.728;6.674;2022-07-21T02:12:18;50.13;44.83;65.55;;
4048;Laerm;2038;51.728;6.674;2022-07-21T02:14:44;48.49;43.04;60.94;;
4048;Laerm;2038;51.728;6.674;2022-07-21T02:17:11;47.71;43.39;64.65;;
4048;Laerm;2038;51.728;6.674;2022-07-21T02:19:37;49.08;44.15;69.35;;
4048;Laerm;2038;51.728;6.674;2022-07-21T02:22:03;44.02;40.33;61.37;;
4048;Laerm;2038;51.728;6.674;2022-07-21T02:24:30;42.14;39.21;47.20;;
4048;Laerm;2038;51.728;6.674;2022-07-21T02:26:56;42.12;38.52;51.72;;
4048;Laerm;2038;51.728;6.674;2022-07-21T02:29:22;41.14;38.37;51.44;;
4048;Laerm;2038;51.728;6.674;2022-07-21T02:31:49;41.21;38.52;58.29;;
4048;Laerm;2038;51.728;6.674;2022-07-21T02:34:15;40.58;38.05;58.20;;
4048;Laerm;2038;51.728;6.674;2022-07-21T02:36:41;40.47;38.05;55.00;;
4048;Laerm;2038;51.728;6.674;2022-07-21T02:39:08;52.76;38.05;69.59;;
4048;Laerm;2038;51.728;6.674;2022-07-21T02:41:34;47.83;36.91;67.03;;
4048;Laerm;2038;51.728;6.674;2022-07-21T02:44:00;39.59;36.45;46.69;;
4048;Laerm;2038;51.728;6.674;2022-07-21T02:46:27;44.60;36.91;61.29;;
4048;Laerm;2038;51.728;6.674;2022-07-21T02:48:53;55.88;36.91;72.36;;
4048;Laerm;2038;51.728;6.674;2022-07-21T02:51:19;47.98;36.45;66.10;;
4048;Laerm;2038;51.728;6.674;2022-07-21T02:53:45;39.17;35.36;46.23;;
4048;Laerm;2038;51.728;6.674;2022-07-21T02:56:12;39.07;35.04;43.63;;
4048;Laerm;2038;51.728;6.674;2022-07-21T02:58:38;47.12;36.69;65.26;;
4048;Laerm;2038;51.728;6.674;2022-07-21T03:01:05;48.37;35.94;69.07;;
4048;Laerm;2038;51.728;6.674;2022-07-21T03:03:35;40.09;36.45;51.80;;
4048;Laerm;2038;51.728;6.674;2022-07-21T03:06:04;53.43;36.45;68.64;;
4048;Laerm;2038;51.728;6.674;2022-07-21T03:08:30;46.08;35.94;63.52;;
4048;Laerm;2038;51.728;6.674;2022-07-21T03:10:57;50.17;35.94;63.75;;
4048;Laerm;2038;51.728;6.674;2022-07-21T03:13:23;47.50;36.20;68.04;;
4048;Laerm;2038;51.728;6.674;2022-07-21T03:15:50;48.82;37.32;65.92;;
4048;Laerm;2038;51.728;6.674;2022-07-21T03:18:17;56.32;36.69;76.78;;
4048;Laerm;2038;51.728;6.674;2022-07-21T03:20:44;55.72;37.52;70.19;;
4048;Laerm;2038;51.728;6.674;2022-07-21T03:23:11;44.42;36.69;59.10;;
4048;Laerm;2038;51.728;6.674;2022-07-21T03:25:38;57.44;37.52;76.34;;
4048;Laerm;2038;51.728;6.674;2022-07-21T03:28:04;55.42;36.91;70.07;;
4048;Laerm;2038;51.728;6.674;2022-07-21T03:30:32;49.53;36.20;67.94;;
4048;Laerm;2038;51.728;6.674;2022-07-21T03:32:59;55.82;37.70;71.56;;
4048;Laerm;2038;51.728;6.674;2022-07-21T03:35:26;49.16;36.69;65.13;;
4048;Laerm;2038;51.728;6.674;2022-07-21T03:37:58;46.06;36.91;62.32;;
4048;Laerm;2038;51.728;6.674;2022-07-21T03:40:29;46.31;36.20;60.85;;
4048;Laerm;2038;51.728;6.674;2022-07-21T03:42:58;49.49;37.32;65.03;;
4048;Laerm;2038;51.728;6.674;2022-07-21T03:45:26;57.07;38.21;74.20;;
4048;Laerm;2038;51.728;6.674;2022-07-21T03:47:57;50.19;36.69;64.90;;
4048;Laerm;2038;51.728;6.674;2022-07-21T03:50:24;48.98;36.69;63.41;;
4048;Laerm;2038;51.728;6.674;2022-07-21T03:52:50;54.51;38.05;69.39;;
4048;Laerm;2038;51.728;6.674;2022-07-21T03:55:17;56.93;37.32;71.98;;
4048;Laerm;2038;51.728;6.674;2022-07-21T03:57:57;47.22;37.12;62.54;;
4048;Laerm;2038;51.728;6.674;2022-07-21T04:00:30;56.21;37.52;71.33;;
4048;Laerm;2038;51.728;6.674;2022-07-21T04:02:58;50.15;36.69;65.26;;
4048;Laerm;2038;51.728;6.674;2022-07-21T04:05:26;49.35;37.32;64.47;;
4048;Laerm;2038;51.728;6.674;2022-07-21T04:07:53;55.63;37.32;74.49;;
4048;Laerm;2038;51.728;6.674;2022-07-21T04:10:25;51.26;37.70;65.51;;
4048;Laerm;2038;51.728;6.674;2022-07-21T04:12:53;48.41;37.12;63.63;;
4048;Laerm;2038;51.728;6.674;2022-07-21T04:15:20;53.73;38.52;67.40;;
4048;Laerm;2038;51.728;6.674;2022-07-21T04:17:47;53.49;37.32;67.38;;
4048;Laerm;2038;51.728;6.674;2022-07-21T04:20:15;47.51;37.32;62.13;;
4048;Laerm;2038;51.728;6.674;2022-07-21T04:22:44;55.91;38.32;68.96;;
4048;Laerm;2038;51.728;6.674;2022-07-21T04:25:11;59.37;39.08;78.88;;
4048;Laerm;2038;51.728;6.674;2022-07-21T04:27:38;52.55;37.52;67.62;;
4048;Laerm;2038;51.728;6.674;2022-07-21T04:30:07;52.48;38.52;65.21;;
4048;Laerm;2038;51.728;6.674;2022-07-21T04:32:34;54.34;39.21;71.13;;
4048;Laerm;2038;51.728;6.674;2022-07-21T04:35:01;56.88;39.21;71.39;;
4048;Laerm;2038;51.728;6.674;2022-07-21T04:37:27;53.67;38.47;65.55;;
4048;Laerm;2038;51.728;6.674;2022-07-21T04:39:53;52.87;37.32;66.54;;
4048;Laerm;2038;51.728;6.674;2022-07-21T04:42:20;58.10;40.03;75.54;;
4048;Laerm;2038;51.728;6.674;2022-07-21T04:44:47;52.54;39.08;78.70;;
4048;Laerm;2038;51.728;6.674;2022-07-21T04:47:13;57.91;39.08;72.90;;
4048;Laerm;2038;51.728;6.674;2022-07-21T04:49:40;52.42;39.46;64.95;;
4048;Laerm;2038;51.728;6.674;2022-07-21T04:52:06;55.49;39.70;70.89;;
4048;Laerm;2038;51.728;6.674;2022-07-21T04:54:32;48.86;38.52;62.60;;
4048;Laerm;2038;51.728;6.674;2022-07-21T04:56:59;57.57;39.34;74.16;;
4048;Laerm;2038;51.728;6.674;2022-07-21T04:59:29;46.96;38.81;62.34;;
4048;Laerm;2038;51.728;6.674;2022-07-21T05:01:56;51.51;39.58;64.65;;
4048;Laerm;2038;51.728;6.674;2022-07-21T05:04:23;54.24;40.53;65.17;;
4048;Laerm;2038;51.728;6.674;2022-07-21T05:06:49;53.50;39.46;69.27;;
4048;Laerm;2038;51.728;6.674;2022-07-21T05:09:15;54.48;39.34;73.27;;
4048;Laerm;2038;51.728;6.674;2022-07-21T05:11:41;55.06;39.08;71.23;;
4048;Laerm;2038;51.728;6.674;2022-07-21T05:14:08;54.61;40.53;66.81;;
4048;Laerm;2038;51.728;6.674;2022-07-21T05:16:34;54.21;40.27;69.69;;
4048;Laerm;2038;51.728;6.674;2022-07-21T05:19:01;55.39;39.92;71.32;;
4048;Laerm;2038;51.728;6.674;2022-07-21T05:21:27;57.18;40.13;70.24;;
4048;Laerm;2038;51.728;6.674;2022-07-21T05:23:53;50.86;39.58;66.66;;
4048;Laerm;2038;51.728;6.674;2022-07-21T05:26:20;51.08;38.81;65.16;;
4048;Laerm;2038;51.728;6.674;2022-07-21T05:28:46;52.51;39.08;64.54;;
4048;Laerm;2038;51.728;6.674;2022-07-21T05:31:12;51.31;39.08;64.36;;
4048;Laerm;2038;51.728;6.674;2022-07-21T05:33:38;50.91;40.98;63.06;;
4048;Laerm;2038;51.728;6.674;2022-07-21T05:36:06;55.27;39.81;69.68;;
4048;Laerm;2038;51.728;6.674;2022-07-21T05:38:32;55.80;40.13;70.42;;
4048;Laerm;2038;51.728;6.674;2022-07-21T05:40:59;54.42;40.33;70.99;;
4048;Laerm;2038;51.728;6.674;2022-07-21T05:43:26;54.27;39.58;74.30;;
4048;Laerm;2038;51.728;6.674;2022-07-21T05:45:53;56.20;40.98;71.00;;
4048;Laerm;2038;51.728;6.674;2022-07-21T05:48:19;53.43;39.92;68.69;;
4048;Laerm;2038;51.728;6.674;2022-07-21T05:50:45;52.26;38.32;66.45;;
4048;Laerm;2038;51.728;6.674;2022-07-21T05:53:12;56.41;40.03;67.08;;
4048;Laerm;2038;51.728;6.674;2022-07-21T05:55:38;51.15;38.60;64.63;;
4048;Laerm;2038;51.728;6.674;2022-07-21T05:58:04;51.71;38.95;64.38;;
4048;Laerm;2038;51.728;6.674;2022-07-21T06:00:30;51.42;38.67;65.71;;
4048;Laerm;2038;51.728;6.674;2022-07-21T06:02:57;48.06;42.03;60.68;;
4048;Laerm;2038;51.728;6.674;2022-07-21T06:05:23;53.51;41.89;69.17;;
4048;Laerm;2038;51.728;6.674;2022-07-21T06:07:49;56.83;42.29;70.24;;
4048;Laerm;2038;51.728;6.674;2022-07-21T06:10:16;52.94;40.03;63.13;;
4048;Laerm;2038;51.728;6.674;2022-07-21T06:12:43;51.93;41.19;67.57;;
4048;Laerm;2038;51.728;6.674;2022-07-21T06:15:12;52.47;39.21;63.59;;
4048;Laerm;2038;51.728;6.674;2022-07-21T06:17:41;54.63;39.70;74.66;;
4048;Laerm;2038;51.728;6.674;2022-07-21T06:20:09;47.89;38.95;62.70;;
4048;Laerm;2038;51.728;6.674;2022-07-21T06:22:36;55.63;39.46;69.39;;
4048;Laerm;2038;51.728;6.674;2022-07-21T06:25:04;55.16;40.13;64.25;;
4048;Laerm;2038;51.728;6.674;2022-07-21T06:27:30;50.93;38.37;63.54;;
4048;Laerm;2038;51.728;6.674;2022-07-21T06:29:58;54.55;39.08;70.32;;
4048;Laerm;2038;51.728;6.674;2022-07-21T06:32:26;52.21;37.12;64.97;;
4048;Laerm;2038;51.728;6.674;2022-07-21T06:34:52;51.23;39.46;64.55;;
4048;Laerm;2038;51.728;6.674;2022-07-21T06:37:18;51.95;39.08;66.13;;
4048;Laerm;2038;51.728;6.674;2022-07-21T06:39:44;53.93;37.87;68.75;;
4048;Laerm;2038;51.728;6.674;2022-07-21T06:42:11;47.88;36.69;65.99;;
4048;Laerm;2038;51.728;6.674;2022-07-21T06:44:37;52.17;38.21;65.45;;
4048;Laerm;2038;51.728;6.674;2022-07-21T06:47:03;52.67;40.89;63.59;;
4048;Laerm;2038;51.728;6.674;2022-07-21T06:49:31;53.65;41.61;66.86;;
4048;Laerm;2038;51.728;6.674;2022-07-21T06:51:58;57.24;39.46;73.78;;
4048;Laerm;2038;51.728;6.674;2022-07-21T06:54:24;60.92;39.34;76.50;;
4048;Laerm;2038;51.728;6.674;2022-07-21T06:56:50;50.18;38.81;62.90;;
4048;Laerm;2038;51.728;6.674;2022-07-21T06:59:17;55.44;38.21;67.69;;
4048;Laerm;2038;51.728;6.674;2022-07-21T07:01:43;51.92;39.81;62.23;;
4048;Laerm;2038;51.728;6.674;2022-07-21T07:04:09;51.41;39.92;64.52;;
4048;Laerm;2038;51.728;6.674;2022-07-21T07:06:36;51.05;39.46;61.31;;
4048;Laerm;2038;51.728;6.674;2022-07-21T07:09:02;53.80;39.46;66.67;;
4048;Laerm;2038;51.728;6.674;2022-07-21T07:11:29;50.40;39.70;61.69;;
4048;Laerm;2038;51.728;6.674;2022-07-21T07:13:55;55.73;39.92;73.81;;
4048;Laerm;2038;51.728;6.674;2022-07-21T07:16:21;56.51;40.33;71.30;;
4048;Laerm;2038;51.728;6.674;2022-07-21T07:18:47;54.36;40.71;68.82;;
4048;Laerm;2038;51.728;6.674;2022-07-21T07:21:13;49.81;41.89;62.49;;
4048;Laerm;2038;51.728;6.674;2022-07-21T07:23:40;55.60;39.08;69.74;;
4048;Laerm;2038;51.728;6.674;2022-07-21T07:26:07;51.98;38.05;68.18;;
4048;Laerm;2038;51.728;6.674;2022-07-21T07:28:34;51.23;38.81;64.16;;
4048;Laerm;2038;51.728;6.674;2022-07-21T07:31:00;53.41;38.37;65.77;;
4048;Laerm;2038;51.728;6.674;2022-07-21T07:33:26;57.51;39.08;74.64;;
4048;Laerm;2038;51.728;6.674;2022-07-21T07:35:53;49.86;39.08;64.29;;
4048;Laerm;2038;51.728;6.674;2022-07-21T07:38:22;51.92;36.91;66.44;;
4048;Laerm;2038;51.728;6.674;2022-07-21T07:40:48;51.35;38.37;66.50;;
4048;Laerm;2038;51.728;6.674;2022-07-21T07:43:14;49.14;38.21;64.98;;
4048;Laerm;2038;51.728;6.674;2022-07-21T07:45:41;55.70;41.38;69.43;;
4048;Laerm;2038;51.728;6.674;2022-07-21T07:48:07;55.46;40.03;69.85;;
4048;Laerm;2038;51.728;6.674;2022-07-21T07:50:33;58.42;41.22;75.07;;
4048;Laerm;2038;51.728;6.674;2022-07-21T07:53:00;51.70;40.23;66.84;;
4048;Laerm;2038;51.728;6.674;2022-07-21T07:55:26;58.58;40.03;73.75;;
4048;Laerm;2038;51.728;6.674;2022-07-21T07:57:52;53.07;38.67;65.66;;
4048;Laerm;2038;51.728;6.674;2022-07-21T08:00:20;51.85;39.34;64.00;;
4048;Laerm;2038;51.728;6.674;2022-07-21T08:02:46;51.32;40.23;65.79;;
4048;Laerm;2038;51.728;6.674;2022-07-21T08:05:12;54.83;41.30;67.40;;
4048;Laerm;2038;51.728;6.674;2022-07-21T08:07:40;50.84;40.53;63.44;;
4048;Laerm;2038;51.728;6.674;2022-07-21T08:10:09;53.98;40.43;67.68;;
4048;Laerm;2038;51.728;6.674;2022-07-21T08:12:36;51.54;39.08;64.16;;
4048;Laerm;2038;51.728;6.674;2022-07-21T08:15:03;50.47;41.30;64.53;;
4048;Laerm;2038;51.728;6.674;2022-07-21T08:17:30;52.20;39.92;63.46;;
4048;Laerm;2038;51.728;6.674;2022-07-21T08:19:56;48.37;39.08;60.92;;
4048;Laerm;2038;51.728;6.674;2022-07-21T08:22:23;52.67;40.23;66.91;;
4048;Laerm;2038;51.728;6.674;2022-07-21T08:24:49;51.04;39.21;65.83;;
4048;Laerm;2038;51.728;6.674;2022-07-21T08:27:15;55.12;39.70;72.27;;
4048;Laerm;2038;51.728;6.674;2022-07-21T08:29:42;54.28;40.23;65.19;;
4048;Laerm;2038;51.728;6.674;2022-07-21T08:32:08;55.33;40.53;68.03;;
4048;Laerm;2038;51.728;6.674;2022-07-21T08:34:34;51.85;38.81;67.37;;
4048;Laerm;2038;51.728;6.674;2022-07-21T08:37:01;55.39;40.80;69.57;;
4048;Laerm;2038;51.728;6.674;2022-07-21T08:39:27;53.15;39.08;64.95;;
4048;Laerm;2038;51.728;6.674;2022-07-21T08:41:53;48.35;38.67;63.23;;
4048;Laerm;2038;51.728;6.674;2022-07-21T08:44:23;56.04;37.70;71.56;;
4048;Laerm;2038;51.728;6.674;2022-07-21T08:46:50;53.82;39.46;67.25;;
4048;Laerm;2038;51.728;6.674;2022-07-21T08:49:20;49.89;39.08;62.26;;
4048;Laerm;2038;51.728;6.674;2022-07-21T08:51:51;53.22;38.52;69.48;;
4048;Laerm;2038;51.728;6.674;2022-07-21T08:54:22;51.54;37.12;66.07;;
4048;Laerm;2038;51.728;6.674;2022-07-21T08:56:49;51.05;40.43;63.57;;
4048;Laerm;2038;51.728;6.674;2022-07-21T08:59:16;53.94;38.95;69.70;;
4048;Laerm;2038;51.728;6.674;2022-07-21T09:01:43;54.24;40.03;67.65;;
4048;Laerm;2038;51.728;6.674;2022-07-21T09:04:24;55.40;40.13;68.96;;
4048;Laerm;2038;51.728;6.674;2022-07-21T09:07:03;50.61;40.03;62.23;;
4048;Laerm;2038;51.728;6.674;2022-07-21T09:09:33;53.34;41.53;63.03;;
4048;Laerm;2038;51.728;6.674;2022-07-21T09:12:03;48.82;39.46;62.54;;
4048;Laerm;2038;51.728;6.674;2022-07-21T09:14:33;47.93;39.92;60.69;;
4048;Laerm;2038;51.728;6.674;2022-07-21T09:17:04;52.91;40.98;66.16;;
4048;Laerm;2038;51.728;6.674;2022-07-21T09:19:37;54.86;39.92;72.55;;
4048;Laerm;2038;51.728;6.674;2022-07-21T09:22:16;50.55;41.22;62.44;;
4048;Laerm;2038;51.728;6.674;2022-07-21T09:24:50;52.56;41.46;66.08;;
4048;Laerm;2038;51.728;6.674;2022-07-21T09:27:21;54.63;40.33;66.65;;
4048;Laerm;2038;51.728;6.674;2022-07-21T09:29:59;53.76;40.53;67.80;;
4048;Laerm;2038;51.728;6.674;2022-07-21T09:32:34;52.53;41.06;65.66;;
4048;Laerm;2038;51.728;6.674;2022-07-21T09:35:11;55.24;41.75;66.96;;
4048;Laerm;2038;51.728;6.674;2022-07-21T09:37:41;52.81;42.76;71.53;;
4048;Laerm;2038;51.728;6.674;2022-07-21T09:40:14;51.88;41.22;63.71;;
4048;Laerm;2038;51.728;6.674;2022-07-21T09:42:43;52.12;43.24;65.44;;
4048;Laerm;2038;51.728;6.674;2022-07-21T09:45:13;53.66;38.67;66.47;;
4048;Laerm;2038;51.728;6.674;2022-07-21T09:47:41;50.56;37.88;62.89;;
4048;Laerm;2038;51.728;6.674;2022-07-21T09:50:13;55.96;39.81;72.51;;
4048;Laerm;2038;51.728;6.674;2022-07-21T09:52:44;56.21;37.70;70.64;;
4048;Laerm;2038;51.728;6.674;2022-07-21T09:55:14;58.04;40.33;72.79;;
4048;Laerm;2038;51.728;6.674;2022-07-21T09:57:41;54.72;36.98;69.69;;
4048;Laerm;2038;51.728;6.674;2022-07-21T10:00:15;48.69;38.37;65.13;;
4048;Laerm;2038;51.728;6.674;2022-07-21T10:02:44;54.30;40.80;69.68;;
4048;Laerm;2038;51.728;6.674;2022-07-21T10:05:14;50.68;37.88;67.94;;
4048;Laerm;2038;51.728;6.674;2022-07-21T10:07:45;51.50;37.88;64.93;;
4048;Laerm;2038;51.728;6.674;2022-07-21T10:10:13;51.04;36.69;63.95;;
4048;Laerm;2038;51.728;6.674;2022-07-21T10:12:40;52.58;36.69;64.14;;
4048;Laerm;2038;51.728;6.674;2022-07-21T10:15:07;48.04;38.95;61.60;;
4048;Laerm;2038;51.728;6.674;2022-07-21T10:17:34;54.73;37.52;69.87;;
4048;Laerm;2038;51.728;6.674;2022-07-21T10:20:32;53.82;39.46;71.13;;
4048;Laerm;2038;51.728;6.674;2022-07-21T10:23:25;56.33;39.70;69.88;;
4048;Laerm;2038;51.728;6.674;2022-07-21T10:25:53;53.41;40.89;65.46;;
4048;Laerm;2038;51.728;6.674;2022-07-21T10:28:22;54.06;39.92;66.27;;
4048;Laerm;2038;51.728;6.674;2022-07-21T10:30:58;54.72;39.46;70.19;;
4048;Laerm;2038;51.728;6.674;2022-07-21T10:41:50;52.30;39.81;66.15;;
4048;Laerm;2038;51.728;6.674;2022-07-21T10:47:30;50.92;40.62;64.59;;
4048;Laerm;2038;51.728;6.674;2022-07-21T10:50:00;57.93;40.53;72.99;;
4048;Laerm;2038;51.728;6.674;2022-07-21T10:55:14;54.39;37.32;70.28;;
4048;Laerm;2038;51.728;6.674;2022-07-21T11:01:24;50.54;39.21;62.85;;
4048;Laerm;2038;51.728;6.674;2022-07-21T11:04:11;52.39;37.52;65.05;;
4048;Laerm;2038;51.728;6.674;2022-07-21T11:06:41;53.63;40.43;64.51;;
4048;Laerm;2038;51.728;6.674;2022-07-21T11:09:10;52.27;39.08;67.09;;
4048;Laerm;2038;51.728;6.674;2022-07-21T11:11:56;51.00;40.53;65.98;;
4048;Laerm;2038;51.728;6.674;2022-07-21T11:14:36;52.77;40.33;65.41;;
4048;Laerm;2038;51.728;6.674;2022-07-21T11:17:03;55.45;41.68;72.04;;
4048;Laerm;2038;51.728;6.674;2022-07-21T11:19:44;54.58;39.81;70.77;;
4048;Laerm;2038;51.728;6.674;2022-07-21T11:22:25;55.68;39.81;73.41;;
4048;Laerm;2038;51.728;6.674;2022-07-21T11:25:00;54.22;39.70;67.98;;
4048;Laerm;2038;51.728;6.674;2022-07-21T11:27:34;54.81;40.03;67.97;;
4048;Laerm;2038;51.728;6.674;2022-07-21T11:30:05;47.77;39.34;59.73;;
4048;Laerm;2038;51.728;6.674;2022-07-21T11:32:32;51.23;39.58;62.94;;
4048;Laerm;2038;51.728;6.674;2022-07-21T11:35:01;51.47;40.13;64.92;;
4048;Laerm;2038;51.728;6.674;2022-07-21T11:37:33;51.18;42.03;65.59;;
4048;Laerm;2038;51.728;6.674;2022-07-21T11:40:00;54.13;41.38;69.34;;
4048;Laerm;2038;51.728;6.674;2022-07-21T11:42:28;54.97;41.41;69.28;;
4048;Laerm;2038;51.728;6.674;2022-07-21T11:44:57;51.11;41.06;64.67;;
4048;Laerm;2038;51.728;6.674;2022-07-21T11:47:24;59.78;42.76;73.92;;
4048;Laerm;2038;51.728;6.674;2022-07-21T11:49:59;52.99;40.89;66.54;;
4048;Laerm;2038;51.728;6.674;2022-07-21T11:52:29;53.53;42.71;68.26;;
4048;Laerm;2038;51.728;6.674;2022-07-21T11:54:59;50.73;42.30;63.71;;
4048;Laerm;2038;51.728;6.674;2022-07-21T11:57:27;54.07;42.35;67.65;;
4048;Laerm;2038;51.728;6.674;2022-07-21T11:59:57;53.62;40.43;68.68;;
4048;Laerm;2038;51.728;6.674;2022-07-21T12:02:27;55.25;41.22;72.13;;
4048;Laerm;2038;51.728;6.674;2022-07-21T12:04:59;58.74;40.71;73.19;;
4048;Laerm;2038;51.728;6.674;2022-07-21T12:07:40;54.77;40.53;66.87;;
4048;Laerm;2038;51.728;6.674;2022-07-21T12:10:12;52.38;40.18;66.56;;
4048;Laerm;2038;51.728;6.674;2022-07-21T12:12:47;56.56;41.61;68.22;;
4048;Laerm;2038;51.728;6.674;2022-07-21T12:15:28;56.78;43.24;70.91;;
4048;Laerm;2038;51.728;6.674;2022-07-21T12:18:06;58.83;44.15;74.33;;
4048;Laerm;2038;51.728;6.674;2022-07-21T12:20:39;58.15;45.36;72.53;;
4048;Laerm;2038;51.728;6.674;2022-07-21T12:23:29;55.13;43.24;70.41;;
4048;Laerm;2038;51.728;6.674;2022-07-21T12:26:01;55.68;44.15;69.76;;
4048;Laerm;2038;51.728;6.674;2022-07-21T12:28:49;57.26;45.33;69.36;;
4048;Laerm;2038;51.728;6.674;2022-07-21T12:31:20;52.04;41.96;66.31;;
4048;Laerm;2038;51.728;6.674;2022-07-21T12:33:52;57.40;41.46;67.51;;
4048;Laerm;2038;51.728;6.674;2022-07-21T12:36:20;56.60;43.14;67.83;;
4048;Laerm;2038;51.728;6.674;2022-07-21T12:38:49;54.35;43.42;67.43;;
4048;Laerm;2038;51.728;6.674;2022-07-21T12:41:19;59.60;43.19;73.55;;
4048;Laerm;2038;51.728;6.674;2022-07-21T12:43:58;59.23;43.94;75.50;;
4048;Laerm;2038;51.728;6.674;2022-07-21T12:46:30;56.98;42.03;71.62;;
4048;Laerm;2038;51.728;6.674;2022-07-21T12:49:05;57.98;42.82;68.21;;
4048;Laerm;2038;51.728;6.674;2022-07-21T12:51:32;53.08;40.89;66.62;;
4048;Laerm;2038;51.728;6.674;2022-07-21T12:53:58;57.61;41.89;70.14;;
4048;Laerm;2038;51.728;6.674;2022-07-21T12:56:30;56.24;42.47;69.35;;
4048;Laerm;2038;51.728;6.674;2022-07-21T12:58:59;59.25;42.41;75.08;;
4048;Laerm;2038;51.728;6.674;2022-07-21T13:01:29;56.12;41.53;70.23;;
4048;Laerm;2038;51.728;6.674;2022-07-21T13:03:57;53.62;42.95;69.87;;
4048;Laerm;2038;51.728;6.674;2022-07-21T13:06:23;62.24;44.39;74.64;;
4048;Laerm;2038;51.728;6.674;2022-07-21T13:08:50;56.58;43.39;70.23;;
4048;Laerm;2038;51.728;6.674;2022-07-21T13:11:19;57.50;42.71;71.01;;
4048;Laerm;2038;51.728;6.674;2022-07-21T13:13:51;59.23;44.31;72.19;;
4048;Laerm;2038;51.728;6.674;2022-07-21T13:16:19;58.11;42.88;75.51;;
4048;Laerm;2038;51.728;6.674;2022-07-21T13:18:46;60.47;40.89;76.24;;
4048;Laerm;2038;51.728;6.674;2022-07-21T13:21:12;59.03;41.68;73.46;;
4048;Laerm;2038;51.728;6.674;2022-07-21T13:23:39;57.60;41.89;70.02;;
4048;Laerm;2038;51.728;6.674;2022-07-21T13:26:05;61.92;43.44;75.73;;
4048;Laerm;2038;51.728;6.674;2022-07-21T13:28:33;58.94;42.22;68.48;;
4048;Laerm;2038;51.728;6.674;2022-07-21T13:31:00;55.75;41.38;70.64;;
4048;Laerm;2038;51.728;6.674;2022-07-21T13:33:27;55.36;41.14;68.18;;
4048;Laerm;2038;51.728;6.674;2022-07-21T13:35:53;55.04;39.46;66.83;;
4048;Laerm;2038;51.728;6.674;2022-07-21T13:38:19;59.18;41.61;74.12;;
4048;Laerm;2038;51.728;6.674;2022-07-21T13:40:45;59.86;42.41;73.26;;
4048;Laerm;2038;51.728;6.674;2022-07-21T13:43:12;53.43;40.33;68.63;;
4048;Laerm;2038;51.728;6.674;2022-07-21T13:45:40;57.38;41.82;69.17;;
4048;Laerm;2038;51.728;6.674;2022-07-21T13:48:07;53.63;40.88;66.38;;
4048;Laerm;2038;51.728;6.674;2022-07-21T13:50:33;56.59;41.14;66.69;;
4048;Laerm;2038;51.728;6.674;2022-07-21T13:52:59;56.24;38.52;70.46;;
4048;Laerm;2038;51.728;6.674;2022-07-21T13:55:26;61.15;38.52;76.61;;
4048;Laerm;2038;51.728;6.674;2022-07-21T13:57:52;52.70;38.52;65.69;;
4048;Laerm;2038;51.728;6.674;2022-07-21T14:00:18;55.33;39.92;66.66;;
4048;Laerm;2038;51.728;6.674;2022-07-21T14:02:45;69.28;39.34;92.11;;
4048;Laerm;2038;51.728;6.674;2022-07-21T14:05:11;52.52;39.21;65.26;;
4048;Laerm;2038;51.728;6.674;2022-07-21T14:07:37;52.96;40.03;65.84;;
4048;Laerm;2038;51.728;6.674;2022-07-21T14:10:06;55.00;40.43;66.66;;
4048;Laerm;2038;51.728;6.674;2022-07-21T14:12:32;55.91;40.03;66.01;;
4048;Laerm;2038;51.728;6.674;2022-07-21T14:14:59;55.54;41.06;69.66;;
4048;Laerm;2038;51.728;6.674;2022-07-21T14:17:25;51.15;38.67;66.00;;
4048;Laerm;2038;51.728;6.674;2022-07-21T14:19:51;51.58;39.70;65.93;;
4048;Laerm;2038;51.728;6.674;2022-07-21T14:22:18;56.48;39.70;65.16;;
4048;Laerm;2038;51.728;6.674;2022-07-21T14:24:45;54.81;40.03;64.76;;
4048;Laerm;2038;51.728;6.674;2022-07-21T14:27:30;54.70;40.33;64.64;;
4048;Laerm;2038;51.728;6.674;2022-07-21T14:29:56;56.99;40.23;67.49;;
4048;Laerm;2038;51.728;6.674;2022-07-21T14:32:23;57.46;40.98;71.54;;
4048;Laerm;2038;51.728;6.674;2022-07-21T14:34:51;57.88;40.62;70.96;;